Map

Track Data

SID SEASON NUMBER BASIN SUBBASIN NAME ISO_TIME NATURE LAT LON WMO_WIND WMO_PRES WMO_AGENCY TRACK_TYPE DIST2LAND LANDFALL IFLAG USA_AGENCY USA_ATCF_ID USA_LAT USA_LON USA_RECORD USA_STATUS USA_WIND USA_PRES USA_SSHS USA_R34_NE USA_R34_SE USA_R34_SW USA_R34_NW USA_R50_NE USA_R50_SE USA_R50_SW USA_R50_NW USA_R64_NE USA_R64_SE USA_R64_SW USA_R64_NW USA_POCI USA_ROCI USA_RMW USA_EYE TOKYO_LAT TOKYO_LON TOKYO_GRADE TOKYO_WIND TOKYO_PRES TOKYO_R50_DIR TOKYO_R50_LONG TOKYO_R50_SHORT TOKYO_R30_DIR TOKYO_R30_LONG TOKYO_R30_SHORT TOKYO_LAND CMA_LAT CMA_LON CMA_CAT CMA_WIND CMA_PRES HKO_LAT HKO_LON HKO_CAT HKO_WIND HKO_PRES NEWDELHI_LAT NEWDELHI_LON NEWDELHI_GRADE NEWDELHI_WIND NEWDELHI_PRES NEWDELHI_CI NEWDELHI_DP NEWDELHI_POCI REUNION_LAT REUNION_LON REUNION_TYPE REUNION_WIND REUNION_PRES REUNION_TNUM REUNION_CI REUNION_RMW REUNION_R34_NE REUNION_R34_SE REUNION_R34_SW REUNION_R34_NW REUNION_R50_NE REUNION_R50_SE REUNION_R50_SW REUNION_R50_NW REUNION_R64_NE REUNION_R64_SE REUNION_R64_SW REUNION_R64_NW BOM_LAT BOM_LON BOM_TYPE BOM_WIND BOM_PRES BOM_TNUM BOM_CI BOM_RMW BOM_R34_NE BOM_R34_SE BOM_R34_SW BOM_R34_NW BOM_R50_NE BOM_R50_SE BOM_R50_SW BOM_R50_NW BOM_R64_NE BOM_R64_SE BOM_R64_SW BOM_R64_NW BOM_ROCI BOM_POCI BOM_EYE BOM_POS_METHOD BOM_PRES_METHOD NADI_LAT NADI_LON NADI_CAT NADI_WIND NADI_PRES WELLINGTON_LAT WELLINGTON_LON WELLINGTON_WIND WELLINGTON_PRES DS824_LAT DS824_LON DS824_STAGE DS824_WIND DS824_PRES TD9636_LAT TD9636_LON TD9636_STAGE TD9636_WIND TD9636_PRES TD9635_LAT TD9635_LON TD9635_WIND TD9635_PRES TD9635_ROCI NEUMANN_LAT NEUMANN_LON NEUMANN_CLASS NEUMANN_WIND NEUMANN_PRES MLC_LAT MLC_LON MLC_CLASS MLC_WIND MLC_PRES USA_GUST BOM_GUST BOM_GUST_PER REUNION_GUST REUNION_GUST_PER USA_SEAHGT USA_SEARAD_NE USA_SEARAD_SE USA_SEARAD_SW USA_SEARAD_NW STORM_SPEED STORM_DIR
1940082S13151 1940 17 SP EA NOT_NAMED 1940-03-21 12:00:00 NR -12.8000 150.900 main 241 237 __________O___ -1 -12.8000 150.900 7 4 270
1940082S13151 1940 17 SP EA NOT_NAMED 1940-03-21 15:00:00 NR -12.8001 150.712 main 237 235 __________P___ -1 -12.8001 150.712 7 4 270
1940082S13151 1940 17 SP EA NOT_NAMED 1940-03-21 18:00:00 NR -12.8001 150.530 main 235 235 __________P___ -1 -12.8001 150.530 7 3 270
1940082S13151 1940 17 SP EA NOT_NAMED 1940-03-21 21:00:00 NR -12.8001 150.357 main 235 235 __________P___ -1 -12.8001 150.357 7 3 270
1940082S13151 1940 17 SP EA NOT_NAMED 1940-03-22 00:00:00 NR -12.8000 150.200 main 235 235 __________O___ -1 -12.8000 150.200 7 3 270
1940082S13151 1940 17 SP EA NOT_NAMED 1940-03-22 03:00:00 NR -12.7999 150.061 main 235 235 __________P___ -1 -12.7999 150.061 7 3 270
1940082S13151 1940 17 SP EA NOT_NAMED 1940-03-22 06:00:00 NR -12.7999 149.935 main 237 237 __________P___ -1 -12.7999 149.935 7 2 270
1940082S13151 1940 17 SP EA NOT_NAMED 1940-03-22 09:00:00 NR -12.8000 149.817 main 239 239 __________P___ -1 -12.8000 149.817 7 2 270
1940082S13151 1940 17 SP EA NOT_NAMED 1940-03-22 12:00:00 NR -12.8000 149.700 main 241 241 __________O___ -1 -12.8000 149.700 7 2 270
1940082S13151 1940 17 SP EA NOT_NAMED 1940-03-22 15:00:00 NR -12.7998 149.603 main 244 244 __________P___ -1 -12.7998 149.603 7 2 270
1940082S13151 1940 17 SP EA NOT_NAMED 1940-03-22 18:00:00 NR -12.7998 149.502 main 247 247 __________P___ -1 -12.7998 149.502 7 2 270
1940082S13151 1940 17 SP EA NOT_NAMED 1940-03-22 21:00:00 NR -12.7998 149.375 main 250 250 __________P___ -1 -12.7998 149.375 7 3 270
1940082S13151 1940 17 SP EA NOT_NAMED 1940-03-23 00:00:00 NR -12.8000 149.200 main 257 257 __________O___ -1 -12.8000 149.200 7 4 271
1940082S13151 1940 17 SP EA NOT_NAMED 1940-03-23 03:00:00 NR -12.7920 148.946 main 269 269 __________P___ -1 -12.7920 148.946 7 5 272
1940082S13151 1940 17 SP EA NOT_NAMED 1940-03-23 06:00:00 NR -12.7852 148.645 main 283 283 __________P___ -1 -12.7852 148.645 7 6 271
1940082S13151 1940 17 SP EA NOT_NAMED 1940-03-23 09:00:00 NR -12.7857 148.321 main 290 290 __________P___ -1 -12.7857 148.321 7 6 269
1940082S13151 1940 17 SP EA NOT_NAMED 1940-03-23 12:00:00 NR -12.8000 148.000 main 291 291 __________O___ -1 -12.8000 148.000 7 6 268
1940082S13151 1940 17 SP EA NOT_NAMED 1940-03-23 15:00:00 NR -12.8027 147.750 main 293 293 __________P___ -1 -12.8027 147.750 7 5 267
1940082S13151 1940 17 SP EA NOT_NAMED 1940-03-23 18:00:00 NR -12.8244 147.502 main 296 296 __________P___ -1 -12.8244 147.502 7 5 261
1940082S13151 1940 17 SP EA NOT_NAMED 1940-03-23 21:00:00 NR -12.8839 147.228 main 311 280 __________P___ -1 -12.8839 147.228 7 6 253
1940082S13151 1940 17 SP EA NOT_NAMED 1940-03-24 00:00:00 NR -13.0000 146.900 main 280 236 __________O___ -1 -13.0000 146.900 7 8 247
1940082S13151 1940 17 SP EA NOT_NAMED 1940-03-24 03:00:00 NR -13.1803 146.495 main 236 193 __________P___ -1 -13.1803 146.495 7 9 244
1940082S13151 1940 17 SP EA NOT_NAMED 1940-03-24 06:00:00 NR -13.4175 146.032 main 187 133 __________P___ -1 -13.4175 146.032 7 11 241
1940082S13151 1940 17 SP EA NOT_NAMED 1940-03-24 09:00:00 NR -13.6958 145.529 main 124 62 __________P___ -1 -13.6958 145.529 7 12 240
1940082S13151 1940 17 SP EA NOT_NAMED 1940-03-24 12:00:00 NR -14.0000 145.000 main 62 0 __________O___ -1 -14.0000 145.000 7 12 239
1940082S13151 1940 17 SP EA NOT_NAMED 1940-03-24 15:00:00 NR -14.3403 144.440 main 0 0 __________P___ -1 -14.3403 144.440 7 13 238
1940082S13151 1940 17 SP EA NOT_NAMED 1940-03-24 18:00:00 NR -14.6955 143.864 main 0 0 __________P___ -1 -14.6955 143.864 7 13 238
1940082S13151 1940 17 SP EA NOT_NAMED 1940-03-24 21:00:00 NR -15.0279 143.306 main 0 0 __________P___ -1 -15.0279 143.306 7 12 240
1940082S13151 1940 17 SP EA NOT_NAMED 1940-03-25 00:00:00 NR -15.3000 142.800 main 0 0 __________O___ -1 -15.3000 142.800 7 10 243
1940082S13151 1940 17 SP EA NOT_NAMED 1940-03-25 03:00:00 NR -15.4721 142.384 main 0 0 __________P___ -1 -15.4721 142.384 7 8 249
1940082S13151 1940 17 SP EA NOT_NAMED 1940-03-25 06:00:00 NR -15.5817 142.024 main 0 0 __________P___ -1 -15.5817 142.024 7 7 255
1940082S13151 1940 17 SP EA NOT_NAMED 1940-03-25 09:00:00 NR -15.6504 141.703 main 0 0 __________P___ -1 -15.6504 141.703 7 6 259
1940082S13151 1940 17 SP EA NOT_NAMED 1940-03-25 12:00:00 NR -15.7000 141.400 main 10 10 __________O___ -1 -15.7000 141.400 7 6 260
1940082S13151 1940 17 SP EA NOT_NAMED 1940-03-25 15:00:00 NR -15.7482 141.100 main 39 33 __________P___ -1 -15.7482 141.100 7 6 260
1940082S13151 1940 17 SP EA NOT_NAMED 1940-03-25 18:00:00 NR -15.7981 140.800 main 65 65 __________P___ -1 -15.7981 140.800 7 6 260
1940082S13151 1940 17 SP EA NOT_NAMED 1940-03-25 21:00:00 NR -15.8489 140.500 main 96 96 __________P___ -1 -15.8489 140.500 7 6 260
1940082S13151 1940 17 SP EA NOT_NAMED 1940-03-26 00:00:00 NR -15.9000 140.200 main 128 __________O___ -1 -15.9000 140.200 7 6 260

Digital Typhoon Data and Search

About IBTrACS Database

This database is a web-friendly format of International Best Track Archive for Climate Stewardship (IBTrACS), a global best track data archive curated by NOAA dating back to 1842.

Updated: 2021-12-03